createdAt,value
2023-03-18T00:00:36.717Z,85.06
2023-03-18T00:01:36.792Z,85.68
2023-03-18T00:02:36.908Z,85.99
2023-03-18T00:03:36.934Z,85.99
2023-03-18T00:04:36.909Z,85.58
2023-03-18T00:05:37.012Z,85.02
2023-03-18T00:06:37.129Z,84.36
2023-03-18T00:07:37.113Z,84.47
2023-03-18T00:08:37.040Z,83.71
2023-03-18T00:09:37.009Z,83.19
2023-03-18T00:10:37.101Z,83.50
2023-03-18T00:11:37.183Z,83.40
2023-03-18T00:12:37.299Z,83.29
2023-03-18T00:13:37.292Z,82.98
2023-03-18T00:14:37.373Z,83.33
2023-03-18T00:15:37.401Z,83.50
2023-03-18T00:16:37.380Z,83.23
2023-03-18T00:17:37.489Z,83.44
2023-03-18T00:18:37.461Z,83.64
2023-03-18T00:19:37.549Z,83.95
2023-03-18T00:20:37.619Z,84.09
2023-03-18T00:21:37.710Z,84.72
2023-03-18T00:22:37.821Z,84.47
2023-03-18T00:23:37.776Z,84.27
2023-03-18T00:24:37.865Z,84.06
2023-03-18T00:25:37.930Z,83.48
2023-03-18T00:26:38.011Z,84.30
2023-03-18T00:27:38.110Z,83.89
2023-03-18T00:28:38.115Z,83.89
2023-03-18T00:29:38.079Z,83.99
2023-03-18T00:30:38.179Z,83.99
2023-03-18T00:31:38.319Z,83.44
2023-03-18T00:32:38.272Z,82.82
2023-03-18T00:33:38.330Z,82.86
2023-03-18T00:34:38.352Z,84.23
2023-03-18T00:35:38.372Z,85.21
2023-03-18T00:36:38.404Z,85.47
2023-03-18T00:37:38.387Z,85.00
2023-03-18T00:38:38.429Z,84.86
2023-03-18T00:39:38.377Z,84.75
2023-03-18T00:40:38.462Z,84.44
2023-03-18T00:41:38.489Z,84.17
2023-03-18T00:42:38.590Z,84.89
2023-03-18T00:43:38.600Z,85.41
2023-03-18T00:44:38.632Z,85.31
2023-03-18T00:45:38.602Z,85.00
2023-03-18T00:46:38.740Z,84.79
2023-03-18T00:47:38.787Z,85.72
2023-03-18T00:48:38.769Z,85.31
2023-03-18T00:49:38.839Z,85.35
2023-03-18T00:50:38.932Z,85.91
2023-03-18T00:51:38.996Z,86.52
2023-03-18T00:52:39.110Z,86.83
2023-03-18T00:53:39.087Z,87.15
2023-03-18T00:54:39.107Z,87.49
2023-03-18T00:55:39.188Z,87.85
2023-03-18T00:56:39.285Z,88.06
2023-03-18T00:57:39.259Z,87.95
2023-03-18T00:58:39.372Z,87.70
2023-03-18T00:59:39.342Z,87.04
2023-03-18T01:00:39.338Z,86.07
2023-03-18T01:01:39.524Z,86.49
2023-03-18T01:02:39.557Z,86.11
2023-03-18T01:03:39.537Z,86.32
2023-03-18T01:04:39.514Z,86.11
2023-03-18T01:05:39.589Z,85.66
2023-03-18T01:06:39.692Z,85.24
2023-03-18T01:07:39.695Z,84.79
2023-03-18T01:08:39.688Z,84.48
2023-03-18T01:09:39.670Z,84.69
2023-03-18T01:10:39.796Z,84.59
2023-03-18T01:11:39.762Z,84.28
2023-03-18T01:12:39.885Z,84.59
2023-03-18T01:13:39.860Z,84.79
2023-03-18T01:14:39.951Z,84.34
2023-03-18T01:15:40.054Z,84.03
2023-03-18T01:16:40.195Z,83.51
2023-03-18T01:17:40.161Z,83.65
2023-03-18T01:18:40.270Z,84.73
2023-03-18T01:19:40.242Z,86.11
2023-03-18T01:20:40.323Z,86.63
2023-03-18T01:21:40.391Z,86.32
2023-03-18T01:22:40.491Z,86.42
2023-03-18T01:23:40.472Z,86.11
2023-03-18T01:24:40.552Z,85.91
2023-03-18T01:25:40.629Z,86.15
2023-03-18T01:26:40.724Z,86.88
2023-03-18T01:27:40.830Z,87.64
2023-03-18T01:28:40.931Z,87.54
2023-03-18T01:29:40.901Z,88.16
2023-03-18T01:30:40.990Z,88.61
2023-03-18T01:31:41.014Z,88.51
2023-03-18T01:32:41.077Z,88.40
2023-03-18T01:33:41.040Z,88.40
2023-03-18T01:34:41.131Z,87.88
2023-03-18T01:35:41.118Z,87.74
2023-03-18T01:36:41.130Z,87.08
2023-03-18T01:37:41.112Z,86.36
2023-03-18T01:38:41.218Z,86.57
2023-03-18T01:39:41.188Z,86.46
2023-03-18T01:40:41.268Z,86.57
2023-03-18T01:41:41.246Z,86.98
2023-03-18T01:42:41.348Z,86.98
2023-03-18T01:43:41.337Z,87.29
2023-03-18T01:44:41.432Z,86.98
2023-03-18T01:45:41.468Z,86.01
2023-03-18T01:46:41.428Z,86.01
2023-03-18T01:47:41.535Z,86.11
2023-03-18T01:48:41.535Z,85.60
2023-03-18T01:49:41.501Z,86.05
2023-03-18T01:50:41.577Z,86.42
2023-03-18T01:51:41.696Z,86.28
2023-03-18T01:52:41.725Z,85.52
2023-03-18T01:53:41.705Z,85.00
2023-03-18T01:54:41.820Z,85.24
2023-03-18T01:55:41.842Z,85.45
2023-03-18T01:56:41.904Z,85.24
2023-03-18T01:57:41.995Z,85.00
2023-03-18T01:58:42.075Z,85.10
2023-03-18T01:59:42.159Z,84.89
2023-03-18T02:00:42.198Z,84.28
2023-03-18T02:01:42.178Z,84.38
2023-03-18T02:02:42.286Z,84.89
2023-03-18T02:03:42.292Z,84.48
2023-03-18T02:04:42.276Z,83.93
2023-03-18T02:05:42.356Z,83.06
2023-03-18T02:06:42.443Z,82.69
2023-03-18T02:07:42.543Z,83.31
2023-03-18T02:08:42.536Z,83.55
2023-03-18T02:09:42.515Z,83.76
2023-03-18T02:10:42.605Z,83.86
2023-03-18T02:11:42.598Z,83.97
2023-03-18T02:12:42.617Z,84.07
2023-03-18T02:13:42.583Z,84.28
2023-03-18T02:14:42.671Z,83.62
2023-03-18T02:15:42.776Z,83.20
2023-03-18T02:16:42.807Z,83.51
2023-03-18T02:17:42.860Z,83.45
2023-03-18T02:18:42.836Z,83.76
2023-03-18T02:19:42.915Z,83.70
2023-03-18T02:20:42.990Z,83.65
2023-03-18T02:21:43.059Z,83.14
2023-03-18T02:22:43.148Z,83.90
2023-03-18T02:23:43.131Z,84.56
2023-03-18T02:24:43.222Z,84.36
2023-03-18T02:25:43.238Z,84.25
2023-03-18T02:26:43.224Z,84.50
2023-03-18T02:27:43.316Z,85.78
2023-03-18T02:28:43.300Z,87.02
2023-03-18T02:29:43.295Z,86.25
2023-03-18T02:30:43.400Z,85.08
2023-03-18T02:31:43.377Z,84.56
2023-03-18T02:32:43.474Z,84.77
2023-03-18T02:33:43.458Z,84.63
2023-03-18T02:34:43.546Z,83.97
2023-03-18T02:35:43.646Z,83.25
2023-03-18T02:36:43.644Z,83.49
2023-03-18T02:37:43.628Z,84.05
2023-03-18T02:38:43.606Z,84.77
2023-03-18T02:39:43.695Z,85.42
2023-03-18T02:40:43.776Z,85.39
2023-03-18T02:41:43.857Z,84.97
2023-03-18T02:42:43.970Z,85.53
2023-03-18T02:43:43.939Z,85.94
2023-03-18T02:44:44.026Z,86.36
2023-03-18T02:45:44.144Z,86.25
2023-03-18T02:46:44.136Z,86.40
2023-03-18T02:47:44.138Z,86.60
2023-03-18T02:48:44.114Z,86.40
2023-03-18T02:49:44.188Z,86.15
2023-03-18T02:50:44.207Z,86.19
2023-03-18T02:51:44.187Z,87.20
2023-03-18T02:52:44.268Z,88.28
2023-03-18T02:53:44.368Z,89.11
2023-03-18T02:54:44.376Z,88.79
2023-03-18T02:55:44.342Z,87.93
2023-03-18T02:56:44.419Z,87.30
2023-03-18T02:57:44.517Z,87.30
2023-03-18T02:58:44.517Z,87.82
2023-03-18T02:59:44.494Z,88.13
2023-03-18T03:00:44.579Z,87.68
2023-03-18T03:01:44.735Z,87.27
2023-03-18T03:02:44.858Z,87.78
2023-03-18T03:03:44.857Z,87.43
2023-03-18T03:04:44.857Z,86.25
2023-03-18T03:05:44.918Z,85.74
2023-03-18T03:06:44.994Z,86.19
2023-03-18T03:07:45.076Z,86.81
2023-03-18T03:08:45.218Z,86.57
2023-03-18T03:09:45.181Z,86.05
2023-03-18T03:10:45.299Z,86.05
2023-03-18T03:11:45.241Z,84.83
2023-03-18T03:12:45.329Z,83.45
2023-03-18T03:13:45.439Z,82.52
2023-03-18T03:14:45.446Z,83.28
2023-03-18T03:15:45.583Z,85.22
2023-03-18T03:16:45.579Z,86.19
2023-03-18T03:17:45.654Z,86.29
2023-03-18T03:18:45.750Z,86.50
2023-03-18T03:19:45.750Z,86.40
2023-03-18T03:20:45.737Z,86.50
2023-03-18T03:21:45.728Z,86.40
2023-03-18T03:22:45.816Z,86.09
2023-03-18T03:23:45.884Z,86.29
2023-03-18T03:24:45.990Z,87.02
2023-03-18T03:25:45.971Z,86.57
2023-03-18T03:26:45.971Z,85.84
2023-03-18T03:27:46.052Z,86.05
2023-03-18T03:28:46.122Z,86.46
2023-03-18T03:29:46.218Z,85.84
2023-03-18T03:30:46.277Z,85.28
2023-03-18T03:31:46.191Z,84.52
2023-03-18T03:32:46.281Z,84.00
2023-03-18T03:33:46.308Z,83.84
2023-03-18T03:34:46.301Z,84.15
2023-03-18T03:35:46.303Z,84.36
2023-03-18T03:36:46.371Z,84.60
2023-03-18T03:37:46.441Z,85.22
2023-03-18T03:38:46.529Z,85.32
2023-03-18T03:39:46.503Z,85.78
2023-03-18T03:40:46.600Z,86.75
2023-03-18T03:41:46.569Z,87.27
2023-03-18T03:42:46.650Z,87.10
2023-03-18T03:43:46.686Z,87.27
2023-03-18T03:44:46.678Z,86.96
2023-03-18T03:45:46.648Z,86.68
2023-03-18T03:46:46.763Z,87.20
2023-03-18T03:47:46.769Z,87.06
2023-03-18T03:48:46.814Z,86.60
2023-03-18T03:49:46.790Z,86.05
2023-03-18T03:50:46.885Z,85.74
2023-03-18T03:51:46.956Z,85.80
2023-03-18T03:52:47.030Z,85.49
2023-03-18T03:53:47.129Z,84.77
2023-03-18T03:54:47.110Z,85.08
2023-03-18T03:55:47.203Z,84.45
2023-03-18T03:56:47.290Z,84.05
2023-03-18T03:57:47.380Z,84.05
2023-03-18T03:58:47.459Z,84.39
2023-03-18T03:59:47.419Z,84.15
2023-03-18T04:00:47.497Z,84.91
2023-03-18T04:01:47.588Z,85.57
2023-03-18T04:02:47.742Z,86.54
2023-03-18T04:03:47.740Z,86.65
2023-03-18T04:04:47.730Z,87.10
2023-03-18T04:05:47.707Z,86.96
2023-03-18T04:06:47.784Z,87.16
2023-03-18T04:07:47.882Z,87.62
2023-03-18T04:08:47.877Z,87.37
2023-03-18T04:09:47.857Z,86.75
2023-03-18T04:10:47.840Z,86.81
2023-03-18T04:11:47.930Z,86.09
2023-03-18T04:12:48.020Z,85.78
2023-03-18T04:13:48.098Z,86.65
2023-03-18T04:14:50.213Z,87.37
2023-03-18T04:15:48.270Z,87.78
2023-03-18T04:16:48.197Z,88.30
2023-03-18T04:17:48.282Z,88.40
2023-03-18T04:18:48.314Z,87.57
2023-03-18T04:19:48.275Z,87.68
2023-03-18T04:20:48.370Z,87.12
2023-03-18T04:21:48.348Z,86.81
2023-03-18T04:22:48.443Z,86.40
2023-03-18T04:23:48.441Z,85.94
2023-03-18T04:24:48.406Z,85.32
2023-03-18T04:25:48.502Z,84.70
2023-03-18T04:26:48.576Z,85.36
2023-03-18T04:27:48.677Z,86.05
2023-03-18T04:28:48.692Z,85.42
2023-03-18T04:29:48.683Z,84.87
2023-03-18T04:30:48.657Z,84.45
2023-03-18T04:31:48.820Z,84.25
2023-03-18T04:32:48.881Z,83.94
2023-03-18T04:33:48.929Z,83.94
2023-03-18T04:34:48.906Z,84.15
2023-03-18T04:35:49.080Z,84.05
2023-03-18T04:36:48.984Z,83.73
2023-03-18T04:37:49.067Z,83.77
2023-03-18T04:38:49.157Z,84.95
2023-03-18T04:39:49.140Z,86.07
2023-03-18T04:40:49.204Z,87.35
2023-03-18T04:41:49.295Z,88.45
2023-03-18T04:42:49.367Z,88.03
2023-03-18T04:43:49.404Z,87.51
2023-03-18T04:44:49.377Z,87.47
2023-03-18T04:45:49.476Z,87.37
2023-03-18T04:46:49.515Z,86.81
2023-03-18T04:47:49.540Z,85.99
2023-03-18T04:48:49.513Z,85.47
2023-03-18T04:49:49.622Z,85.82
2023-03-18T04:50:49.599Z,85.88
2023-03-18T04:51:49.712Z,85.42
2023-03-18T04:52:49.671Z,85.42
2023-03-18T04:53:49.782Z,85.74
2023-03-18T04:54:49.761Z,85.84
2023-03-18T04:55:49.811Z,85.22
2023-03-18T04:56:49.793Z,84.91
2023-03-18T04:57:49.863Z,85.32
2023-03-18T04:58:49.975Z,85.42
2023-03-18T04:59:50.001Z,85.63
2023-03-18T05:00:49.990Z,85.57
2023-03-18T05:01:50.083Z,85.57
2023-03-18T05:02:50.084Z,85.88
2023-03-18T05:03:50.260Z,86.37
2023-03-18T05:04:50.187Z,87.38
2023-03-18T05:05:50.157Z,88.42
2023-03-18T05:06:50.243Z,88.78
2023-03-18T05:07:50.359Z,88.78
2023-03-18T05:08:50.399Z,88.98
2023-03-18T05:09:50.366Z,88.73
2023-03-18T05:10:50.451Z,88.21
2023-03-18T05:11:50.526Z,88.21
2023-03-18T05:12:50.517Z,88.21
2023-03-18T05:13:50.605Z,88.07
2023-03-18T05:14:50.644Z,87.87
2023-03-18T05:15:50.634Z,87.55
2023-03-18T05:16:50.639Z,87.10
2023-03-18T05:17:50.623Z,87.10
2023-03-18T05:18:50.713Z,86.85
2023-03-18T05:19:50.695Z,86.54
2023-03-18T05:20:50.770Z,86.23
2023-03-18T05:21:50.852Z,85.61
2023-03-18T05:22:50.917Z,85.50
2023-03-18T05:23:51.061Z,85.50
2023-03-18T05:24:51.036Z,85.96
2023-03-18T05:25:51.084Z,86.17
2023-03-18T05:26:51.121Z,86.62
2023-03-18T05:27:51.194Z,87.28
2023-03-18T05:28:51.206Z,87.95
2023-03-18T05:29:51.205Z,88.15
2023-03-18T05:30:51.197Z,87.88
2023-03-18T05:31:51.224Z,88.30
2023-03-18T05:32:51.223Z,89.13
2023-03-18T05:33:51.237Z,89.65
2023-03-18T05:34:51.197Z,89.40
2023-03-18T05:35:51.245Z,88.53
2023-03-18T05:36:51.205Z,87.87
2023-03-18T05:37:51.294Z,87.16
2023-03-18T05:38:51.476Z,85.47
2023-03-18T05:39:51.373Z,84.64
2023-03-18T05:40:51.444Z,84.53
2023-03-18T05:41:51.534Z,85.40
2023-03-18T05:42:56.191Z,85.86
2023-03-18T05:43:51.603Z,85.69
2023-03-18T05:44:51.579Z,86.66
2023-03-18T05:45:51.713Z,87.32
2023-03-18T05:46:51.701Z,87.63
2023-03-18T05:47:51.825Z,87.95
2023-03-18T05:48:51.795Z,88.21
2023-03-18T05:49:51.860Z,87.43
2023-03-18T05:50:51.930Z,88.30
2023-03-18T05:51:54.728Z,88.51
2023-03-18T05:52:52.082Z,88.57
2023-03-18T05:53:52.060Z,87.74
2023-03-18T05:54:52.131Z,87.70
2023-03-18T05:55:52.211Z,86.87
2023-03-18T05:56:52.332Z,87.22
2023-03-18T05:57:52.344Z,87.84
2023-03-18T05:58:52.332Z,87.63
2023-03-18T05:59:52.307Z,87.12
2023-03-18T06:00:52.374Z,87.53
2023-03-18T06:01:52.508Z,87.68
2023-03-18T06:02:52.522Z,88.44
2023-03-18T06:03:52.590Z,88.75
2023-03-18T06:04:52.484Z,89.11
2023-03-18T06:05:52.566Z,89.73
2023-03-18T06:06:52.644Z,90.04
2023-03-18T06:07:52.714Z,90.04
2023-03-18T06:08:52.786Z,89.34
2023-03-18T06:09:52.890Z,88.40
2023-03-18T06:10:52.873Z,87.88
2023-03-18T06:11:52.972Z,88.44
2023-03-18T06:12:52.949Z,88.96
2023-03-18T06:13:53.007Z,89.27
2023-03-18T06:14:53.030Z,89.94
2023-03-18T06:15:53.104Z,90.14
2023-03-18T06:16:53.219Z,90.41
2023-03-18T06:17:53.186Z,89.69
2023-03-18T06:18:53.253Z,89.03
2023-03-18T06:19:53.341Z,88.71
2023-03-18T06:20:53.415Z,88.26
2023-03-18T06:21:53.514Z,87.70
2023-03-18T06:22:53.498Z,87.32
2023-03-18T06:23:53.576Z,87.88
2023-03-18T06:24:53.656Z,88.71
2023-03-18T06:25:53.655Z,89.48
2023-03-18T06:26:53.743Z,89.89
2023-03-18T06:27:53.815Z,89.44
2023-03-18T06:28:53.875Z,89.17
2023-03-18T06:29:53.955Z,89.58
2023-03-18T06:30:54.062Z,89.48
2023-03-18T06:31:54.055Z,89.13
2023-03-18T06:32:54.102Z,89.19
2023-03-18T06:33:54.080Z,88.32
2023-03-18T06:34:54.144Z,87.80
2023-03-18T06:35:54.320Z,87.97
2023-03-18T06:36:54.294Z,86.89
2023-03-18T06:37:54.355Z,85.82
2023-03-18T06:38:54.466Z,84.95
2023-03-18T06:39:54.427Z,84.22
2023-03-18T06:40:54.510Z,83.91
2023-03-18T06:41:54.583Z,83.91
2023-03-18T06:42:54.657Z,84.19
2023-03-18T06:43:54.725Z,84.08
2023-03-18T06:44:54.825Z,84.12
2023-03-18T06:45:54.854Z,83.91
2023-03-18T06:46:54.855Z,83.81
2023-03-18T06:47:54.925Z,83.61
2023-03-18T06:48:55.005Z,84.68
2023-03-18T06:49:55.054Z,85.65
2023-03-18T06:50:55.106Z,86.27
2023-03-18T06:51:55.174Z,87.04
2023-03-18T06:52:55.235Z,87.87
2023-03-18T06:53:55.304Z,88.42
2023-03-18T06:54:55.368Z,88.73
2023-03-18T06:55:55.424Z,88.94
2023-03-18T06:56:55.525Z,88.53
2023-03-18T06:57:55.487Z,88.94
2023-03-18T06:58:55.543Z,88.94
2023-03-18T06:59:55.602Z,89.56
2023-03-18T07:00:55.693Z,89.87
2023-03-18T07:01:55.816Z,89.87
2023-03-18T07:02:55.691Z,90.08
2023-03-18T07:03:55.756Z,90.50
2023-03-18T07:04:55.814Z,90.50
2023-03-18T07:05:55.864Z,90.50
2023-03-18T07:06:55.943Z,90.35
2023-03-18T07:07:56.005Z,90.14
2023-03-18T07:08:56.073Z,90.04
2023-03-18T07:09:56.142Z,89.69
2023-03-18T07:10:57.664Z,89.23
2023-03-18T07:11:56.465Z,88.40
2023-03-18T07:12:56.312Z,88.30
2023-03-18T07:13:56.322Z,88.30
2023-03-18T07:14:56.415Z,87.95
2023-03-18T07:15:56.650Z,88.06
2023-03-18T07:16:56.482Z,87.74
2023-03-18T07:17:57.325Z,87.39
2023-03-18T07:18:56.573Z,86.83
2023-03-18T07:19:56.656Z,86.32
2023-03-18T07:20:56.706Z,86.11
2023-03-18T07:21:56.787Z,85.91
2023-03-18T07:22:56.861Z,85.80
2023-03-18T07:23:56.902Z,85.80
2023-03-18T07:24:56.957Z,85.66
2023-03-18T07:25:57.012Z,85.14
2023-03-18T07:26:57.096Z,85.45
2023-03-18T07:27:57.161Z,85.66
2023-03-18T07:28:57.233Z,85.21
2023-03-18T07:29:57.291Z,85.10
2023-03-18T07:30:57.412Z,85.21
2023-03-18T07:31:57.374Z,85.17
2023-03-18T07:32:57.453Z,85.17
2023-03-18T07:33:57.492Z,85.17
2023-03-18T07:34:57.530Z,84.96
2023-03-18T07:35:57.597Z,84.55
2023-03-18T07:36:57.581Z,83.99
2023-03-18T07:37:57.660Z,83.48
2023-03-18T07:38:57.693Z,83.33
2023-03-18T07:39:57.730Z,83.23
2023-03-18T07:40:57.780Z,83.03
2023-03-18T07:41:57.855Z,82.51
2023-03-18T07:42:57.880Z,81.54
2023-03-18T07:43:57.940Z,80.82
2023-03-18T07:44:58.011Z,80.82
2023-03-18T07:45:58.052Z,80.51
2023-03-18T07:46:58.190Z,80.58
2023-03-18T07:47:58.286Z,80.58
2023-03-18T07:48:58.241Z,80.47
2023-03-18T07:49:58.226Z,80.33
2023-03-18T07:50:58.289Z,80.13
2023-03-18T07:51:58.408Z,80.02
2023-03-18T07:52:58.481Z,79.68
2023-03-18T07:53:58.451Z,79.68
2023-03-18T07:54:58.573Z,79.47
2023-03-18T07:55:58.557Z,78.86
2023-03-18T07:56:58.583Z,78.86
2023-03-18T07:57:58.618Z,78.86
2023-03-18T07:58:58.590Z,78.72
2023-03-18T07:59:58.670Z,78.47
2023-03-18T08:00:58.669Z,77.65
2023-03-18T08:01:58.744Z,76.69
2023-03-18T08:02:58.744Z,75.76
2023-03-18T08:03:58.828Z,75.46
2023-03-18T08:04:58.896Z,75.35
2023-03-18T08:05:58.898Z,75.25
2023-03-18T08:06:58.932Z,74.70
2023-03-18T08:07:58.892Z,74.60
2023-03-18T08:08:58.969Z,74.67
2023-03-18T08:09:58.941Z,74.57
2023-03-18T08:10:59.000Z,74.46
2023-03-18T08:11:59.065Z,74.26
2023-03-18T08:12:59.131Z,73.54
2023-03-18T08:13:59.189Z,72.78
2023-03-18T08:14:59.201Z,72.78
2023-03-18T08:15:59.279Z,72.34
2023-03-18T08:16:59.368Z,71.93
2023-03-18T08:17:59.449Z,71.62
2023-03-18T08:18:59.503Z,70.90
2023-03-18T08:19:59.813Z,70.46
2023-03-18T08:20:59.579Z,70.05
2023-03-18T08:21:59.621Z,69.81
2023-03-18T08:22:59.864Z,69.92
2023-03-18T08:23:59.695Z,69.61
2023-03-18T08:24:59.753Z,69.40
2023-03-18T08:25:59.788Z,68.65
2023-03-18T08:26:59.802Z,68.04
2023-03-18T08:27:59.860Z,67.49
2023-03-18T08:28:59.909Z,67.90
2023-03-18T08:30:01.636Z,68.41
2023-03-18T08:31:00.036Z,66.98
2023-03-18T08:32:00.113Z,66.34
2023-03-18T08:33:00.184Z,66.34
2023-03-18T08:34:00.118Z,66.03
2023-03-18T08:35:00.190Z,64.77
2023-03-18T08:36:00.224Z,64.23
2023-03-18T08:37:00.169Z,64.33
2023-03-18T08:38:00.237Z,64.33
2023-03-18T08:39:00.281Z,64.61
2023-03-18T08:40:00.340Z,64.10
2023-03-18T08:41:00.409Z,63.56
2023-03-18T08:42:00.463Z,63.12
2023-03-18T08:43:00.530Z,62.61
2023-03-18T08:44:00.550Z,62.10
2023-03-18T08:45:00.642Z,61.76
2023-03-18T08:46:00.680Z,61.46
2023-03-18T08:47:00.778Z,60.71
2023-03-18T08:48:00.838Z,60.00
2023-03-18T08:49:00.892Z,60.10
2023-03-18T08:50:00.936Z,59.97
2023-03-18T08:51:00.977Z,60.30
2023-03-18T08:52:01.018Z,59.49
2023-03-18T08:53:01.063Z,59.05
2023-03-18T08:54:01.106Z,59.05
2023-03-18T08:55:01.145Z,57.60
2023-03-18T08:56:02.908Z,56.96
2023-03-18T08:57:01.254Z,56.55
2023-03-18T08:58:01.313Z,55.81
2023-03-18T08:59:01.378Z,55.41
2023-03-18T09:00:01.411Z,55.38
2023-03-18T09:01:01.450Z,55.20
2023-03-18T09:02:01.477Z,54.08
2023-03-18T09:03:01.531Z,53.65
2023-03-18T09:04:01.500Z,53.34
2023-03-18T09:05:01.554Z,52.63
2023-03-18T09:06:01.600Z,50.90
2023-03-18T09:07:01.634Z,51.20
2023-03-18T09:08:01.685Z,50.90
2023-03-18T09:09:01.715Z,50.57
2023-03-18T09:10:01.742Z,50.45
2023-03-18T09:11:01.816Z,47.80
2023-03-18T09:12:01.855Z,47.60
2023-03-18T09:13:01.913Z,47.19
2023-03-18T09:14:01.959Z,47.39
2023-03-18T09:15:02.019Z,47.19
2023-03-18T09:16:02.047Z,47.47
2023-03-18T09:17:02.161Z,48.47
2023-03-18T09:18:11.392Z,46.33
2023-03-18T09:19:02.177Z,45.93
2023-03-18T09:20:02.219Z,46.92
2023-03-18T09:21:02.255Z,46.51
2023-03-18T09:22:02.311Z,45.58
2023-03-18T09:23:02.364Z,46.49
2023-03-18T09:24:02.425Z,46.41
2023-03-18T09:25:02.445Z,45.60
2023-03-18T09:26:02.490Z,45.48
2023-03-18T09:27:02.561Z,45.56
2023-03-18T09:28:02.608Z,45.74
2023-03-18T09:29:02.623Z,44.22
2023-03-18T09:30:02.669Z,45.42
2023-03-18T09:31:02.766Z,44.76
2023-03-18T09:32:02.732Z,42.54
2023-03-18T09:33:02.862Z,43.37
2023-03-18T09:34:02.867Z,42.66
2023-03-18T09:35:02.911Z,41.88
2023-03-18T09:36:03.020Z,41.48
2023-03-18T09:37:02.986Z,42.27
2023-03-18T09:38:03.033Z,43.06
2023-03-18T09:39:03.072Z,42.54
2023-03-18T09:40:04.109Z,42.82
2023-03-18T09:41:03.220Z,41.24
2023-03-18T09:42:03.269Z,41.77
2023-03-18T09:43:03.301Z,42.27
2023-03-18T09:44:03.336Z,40.33
2023-03-18T09:45:03.372Z,40.63
2023-03-18T09:46:03.513Z,42.03
2023-03-18T09:47:03.585Z,41.80
2023-03-18T09:48:03.493Z,42.27
2023-03-18T09:49:03.514Z,40.86
2023-03-18T09:50:03.555Z,39.78
2023-03-18T09:51:03.594Z,40.89
2023-03-18T09:52:03.638Z,40.55
2023-03-18T09:53:03.686Z,40.44
2023-03-18T09:54:03.730Z,40.23
2023-03-18T09:55:03.786Z,40.44
2023-03-18T09:56:03.826Z,40.03
2023-03-18T09:57:03.874Z,39.24
2023-03-18T09:58:03.924Z,38.53
2023-03-18T09:59:03.954Z,38.06
2023-03-18T10:00:03.984Z,38.26
2023-03-18T10:01:04.073Z,38.57
2023-03-18T10:02:04.113Z,38.99
2023-03-18T10:03:06.344Z,39.48
2023-03-18T10:04:04.296Z,38.16
2023-03-18T10:05:04.251Z,38.26
2023-03-18T10:06:04.284Z,40.15
2023-03-18T10:07:04.353Z,37.60
2023-03-18T10:08:04.383Z,37.21
2023-03-18T10:09:04.426Z,38.14
2023-03-18T10:10:04.458Z,37.92
2023-03-18T10:11:04.504Z,38.33
2023-03-18T10:12:04.574Z,39.70
2023-03-18T10:13:04.599Z,38.48
2023-03-18T10:14:04.626Z,37.66
2023-03-18T10:15:04.677Z,38.90
2023-03-18T10:16:04.786Z,38.01
2023-03-18T10:17:04.820Z,40.45
2023-03-18T10:18:04.745Z,40.73
2023-03-18T10:19:04.775Z,38.43
2023-03-18T10:20:04.859Z,38.04
2023-03-18T10:21:04.910Z,38.11
2023-03-18T10:22:04.977Z,39.12
2023-03-18T10:23:05.078Z,38.09
2023-03-18T10:24:05.116Z,36.37
2023-03-18T10:25:05.147Z,36.07
2023-03-18T10:26:05.213Z,36.77
2023-03-18T10:27:05.246Z,38.41
2023-03-18T10:28:05.275Z,38.80
2023-03-18T10:29:05.320Z,37.99
2023-03-18T10:30:05.373Z,36.88
2023-03-18T10:31:05.439Z,37.38
2023-03-18T10:32:05.526Z,36.76
2023-03-18T10:33:05.646Z,36.46
2023-03-18T10:34:05.601Z,37.18
2023-03-18T10:35:05.649Z,38.19
2023-03-18T10:36:05.785Z,39.10
2023-03-18T10:37:05.773Z,38.17
2023-03-18T10:38:05.808Z,37.55
2023-03-18T10:39:05.839Z,37.85
2023-03-18T10:40:05.893Z,37.24
2023-03-18T10:41:05.929Z,38.28
2023-03-18T10:42:05.989Z,37.77
2023-03-18T10:43:06.032Z,36.84
2023-03-18T10:44:06.084Z,36.94
2023-03-18T10:45:06.123Z,38.86
2023-03-18T10:46:06.233Z,37.33
2023-03-18T10:47:06.354Z,37.53
2023-03-18T10:48:06.353Z,37.43
2023-03-18T10:49:06.282Z,38.52
2023-03-18T10:50:06.295Z,38.50
2023-03-18T10:51:06.343Z,38.39
2023-03-18T10:52:06.372Z,36.12
2023-03-18T10:53:06.401Z,36.24
2023-03-18T10:54:08.448Z,37.35
2023-03-18T10:55:06.477Z,37.04
2023-03-18T10:56:06.512Z,35.83
2023-03-18T10:57:06.594Z,37.04
2023-03-18T10:58:07.605Z,36.22
2023-03-18T10:59:06.674Z,36.62
2023-03-18T11:00:06.714Z,37.19
2023-03-18T11:01:06.745Z,35.97
2023-03-18T11:02:07.812Z,36.25
2023-03-18T11:03:06.856Z,36.13
2023-03-18T11:04:06.886Z,36.05
2023-03-18T11:05:06.897Z,36.66
2023-03-18T11:06:06.929Z,36.46
2023-03-18T11:07:06.966Z,36.54
2023-03-18T11:08:06.973Z,35.53
2023-03-18T11:09:07.008Z,35.45
2023-03-18T11:10:07.067Z,34.74
2023-03-18T11:11:07.112Z,34.86
2023-03-18T11:12:09.137Z,35.97
2023-03-18T11:13:07.158Z,34.64
2023-03-18T11:14:07.177Z,33.75
2023-03-18T11:15:07.208Z,33.75
2023-03-18T11:16:09.293Z,33.03
2023-03-18T11:17:07.247Z,33.23
2023-03-18T11:18:07.258Z,34.32
2023-03-18T11:19:07.274Z,33.92
2023-03-18T11:20:07.295Z,34.00
2023-03-18T11:21:07.302Z,33.92
2023-03-18T11:22:07.320Z,34.20
2023-03-18T11:23:07.350Z,34.71
2023-03-18T11:24:07.363Z,35.10
2023-03-18T11:25:07.370Z,34.39
2023-03-18T11:26:08.401Z,34.89
2023-03-18T11:27:07.481Z,34.09
2023-03-18T11:28:07.515Z,34.49
2023-03-18T11:29:07.534Z,33.69
2023-03-18T11:30:07.544Z,32.78
2023-03-18T11:31:07.639Z,34.09
2023-03-18T11:32:09.828Z,33.67
2023-03-18T11:33:07.802Z,33.67
2023-03-18T11:34:07.741Z,32.88
2023-03-18T11:35:07.753Z,33.70
2023-03-18T11:36:07.764Z,34.00
2023-03-18T11:37:07.792Z,33.60
2023-03-18T11:38:07.816Z,33.22
2023-03-18T11:39:07.837Z,33.22
2023-03-18T11:40:07.860Z,34.42
2023-03-18T11:41:07.872Z,32.41
2023-03-18T11:42:07.925Z,32.01
2023-03-18T11:43:07.952Z,31.99
2023-03-18T11:44:07.965Z,31.39
2023-03-18T11:45:07.970Z,34.39
2023-03-18T11:46:08.001Z,33.25
2023-03-18T11:47:08.081Z,31.14
2023-03-18T11:48:08.036Z,31.95
2023-03-18T11:49:08.061Z,32.46
2023-03-18T11:50:08.080Z,32.38
2023-03-18T11:51:08.099Z,33.99
2023-03-18T11:52:08.174Z,30.85
2023-03-18T11:53:08.210Z,30.96
2023-03-18T11:54:08.224Z,31.68
2023-03-18T11:55:08.254Z,31.96
2023-03-18T11:56:08.274Z,30.96
2023-03-18T11:57:08.327Z,31.65
2023-03-18T11:58:08.357Z,32.03
2023-03-18T11:59:08.381Z,31.14
2023-03-18T12:00:08.395Z,30.35
2023-03-18T12:01:08.409Z,32.46
2023-03-18T12:02:08.606Z,32.17
2023-03-18T12:03:08.431Z,31.36
2023-03-18T12:04:08.475Z,30.83
2023-03-18T12:05:08.559Z,30.01
2023-03-18T12:06:08.498Z,29.71
2023-03-18T12:07:08.508Z,29.22
2023-03-18T12:08:08.557Z,31.13
2023-03-18T12:09:08.574Z,31.82
2023-03-18T12:10:08.596Z,32.20
2023-03-18T12:11:08.646Z,30.58
2023-03-18T12:12:08.659Z,30.58
2023-03-18T12:13:08.717Z,29.69
2023-03-18T12:14:08.718Z,30.71
2023-03-18T12:15:08.720Z,29.99
2023-03-18T12:16:08.812Z,29.58
2023-03-18T12:17:08.871Z,28.99
2023-03-18T12:18:08.902Z,29.91
2023-03-18T12:19:09.029Z,29.49
2023-03-18T12:20:08.979Z,29.19
2023-03-18T12:21:09.002Z,29.31
2023-03-18T12:22:09.041Z,30.01
2023-03-18T12:23:09.068Z,29.72
2023-03-18T12:24:09.073Z,30.22
2023-03-18T12:25:09.090Z,31.13
2023-03-18T12:26:09.129Z,30.90
2023-03-18T12:27:09.160Z,31.38
2023-03-18T12:28:09.191Z,30.27
2023-03-18T12:29:09.197Z,28.36
2023-03-18T12:30:09.223Z,29.27
2023-03-18T12:31:09.248Z,30.19
2023-03-18T12:32:09.304Z,29.97
2023-03-18T12:33:09.324Z,27.46
2023-03-18T12:34:09.368Z,29.06
2023-03-18T12:35:09.403Z,28.38
2023-03-18T12:36:09.500Z,28.19
2023-03-18T12:37:09.447Z,29.08
2023-03-18T12:38:09.477Z,28.66
2023-03-18T12:39:09.488Z,28.25
2023-03-18T12:40:09.527Z,28.53
2023-03-18T12:41:09.605Z,29.52
2023-03-18T12:42:09.638Z,28.23
2023-03-18T12:43:09.651Z,28.02
2023-03-18T12:44:09.680Z,28.94
2023-03-18T12:45:09.694Z,28.36
2023-03-18T12:46:09.746Z,28.46
2023-03-18T12:47:09.841Z,28.58
2023-03-18T12:48:09.858Z,28.56
2023-03-18T12:49:09.886Z,27.85
2023-03-18T12:50:09.909Z,27.76
2023-03-18T12:51:09.934Z,28.66
2023-03-18T12:52:09.953Z,28.94
2023-03-18T12:53:09.973Z,29.55